sensor_id;sensor_type;location;lat;lon;timestamp;P1;durP1;ratioP1;P2;durP2;ratioP2
25854;SDS011;13680;49.936;11.344;2023-02-28T00:00:24;6.93;;;3.83;;
25854;SDS011;13680;49.936;11.344;2023-02-28T00:02:50;7.13;;;4.13;;
25854;SDS011;13680;49.936;11.344;2023-02-28T00:05:16;9.35;;;4.07;;
25854;SDS011;13680;49.936;11.344;2023-02-28T00:07:43;7.78;;;4.22;;
25854;SDS011;13680;49.936;11.344;2023-02-28T00:10:10;7.70;;;4.43;;
25854;SDS011;13680;49.936;11.344;2023-02-28T00:12:37;9.60;;;3.95;;
25854;SDS011;13680;49.936;11.344;2023-02-28T00:15:09;8.90;;;3.72;;
25854;SDS011;13680;49.936;11.344;2023-02-28T00:17:36;6.30;;;3.80;;
25854;SDS011;13680;49.936;11.344;2023-02-28T00:20:03;7.85;;;3.97;;
25854;SDS011;13680;49.936;11.344;2023-02-28T00:22:29;11.05;;;4.20;;
25854;SDS011;13680;49.936;11.344;2023-02-28T00:24:55;7.70;;;4.43;;
25854;SDS011;13680;49.936;11.344;2023-02-28T00:27:21;6.45;;;3.63;;
25854;SDS011;13680;49.936;11.344;2023-02-28T00:29:46;8.27;;;5.07;;
25854;SDS011;13680;49.936;11.344;2023-02-28T00:32:12;9.98;;;4.07;;
25854;SDS011;13680;49.936;11.344;2023-02-28T00:34:37;7.55;;;4.43;;
25854;SDS011;13680;49.936;11.344;2023-02-28T00:37:06;9.57;;;4.78;;
25854;SDS011;13680;49.936;11.344;2023-02-28T00:39:34;6.57;;;4.38;;
25854;SDS011;13680;49.936;11.344;2023-02-28T00:42:00;8.95;;;4.40;;
25854;SDS011;13680;49.936;11.344;2023-02-28T00:44:27;9.38;;;4.55;;
25854;SDS011;13680;49.936;11.344;2023-02-28T00:46:52;9.88;;;4.50;;
25854;SDS011;13680;49.936;11.344;2023-02-28T00:49:19;7.35;;;4.15;;
25854;SDS011;13680;49.936;11.344;2023-02-28T00:51:44;6.43;;;4.22;;
25854;SDS011;13680;49.936;11.344;2023-02-28T00:54:10;12.20;;;5.00;;
25854;SDS011;13680;49.936;11.344;2023-02-28T00:56:35;9.13;;;3.95;;
25854;SDS011;13680;49.936;11.344;2023-02-28T00:59:00;7.68;;;4.78;;
25854;SDS011;13680;49.936;11.344;2023-02-28T01:01:25;8.23;;;4.45;;
25854;SDS011;13680;49.936;11.344;2023-02-28T01:03:51;10.63;;;4.55;;
25854;SDS011;13680;49.936;11.344;2023-02-28T01:06:16;7.10;;;4.05;;
25854;SDS011;13680;49.936;11.344;2023-02-28T01:08:41;11.52;;;4.20;;
25854;SDS011;13680;49.936;11.344;2023-02-28T01:11:11;6.60;;;4.15;;
25854;SDS011;13680;49.936;11.344;2023-02-28T01:13:37;9.60;;;4.40;;
25854;SDS011;13680;49.936;11.344;2023-02-28T01:16:03;12.05;;;4.63;;
25854;SDS011;13680;49.936;11.344;2023-02-28T01:18:29;10.20;;;4.32;;
25854;SDS011;13680;49.936;11.344;2023-02-28T01:20:54;9.90;;;4.78;;
25854;SDS011;13680;49.936;11.344;2023-02-28T01:23:20;9.23;;;5.25;;
25854;SDS011;13680;49.936;11.344;2023-02-28T01:25:48;8.55;;;5.05;;
25854;SDS011;13680;49.936;11.344;2023-02-28T01:28:14;8.85;;;4.65;;
25854;SDS011;13680;49.936;11.344;2023-02-28T01:30:39;8.60;;;4.97;;
25854;SDS011;13680;49.936;11.344;2023-02-28T01:33:04;10.15;;;4.88;;
25854;SDS011;13680;49.936;11.344;2023-02-28T01:35:32;8.48;;;4.75;;
25854;SDS011;13680;49.936;11.344;2023-02-28T01:37:58;12.40;;;5.57;;
25854;SDS011;13680;49.936;11.344;2023-02-28T01:40:24;7.70;;;4.72;;
25854;SDS011;13680;49.936;11.344;2023-02-28T01:42:49;8.70;;;4.63;;
25854;SDS011;13680;49.936;11.344;2023-02-28T01:47:50;9.90;;;4.33;;
25854;SDS011;13680;49.936;11.344;2023-02-28T01:50:18;8.98;;;4.60;;
25854;SDS011;13680;49.936;11.344;2023-02-28T01:52:46;8.50;;;4.78;;
25854;SDS011;13680;49.936;11.344;2023-02-28T01:55:13;10.30;;;5.32;;
25854;SDS011;13680;49.936;11.344;2023-02-28T01:57:42;8.27;;;4.80;;
25854;SDS011;13680;49.936;11.344;2023-02-28T02:00:14;8.55;;;4.63;;
25854;SDS011;13680;49.936;11.344;2023-02-28T02:02:41;10.05;;;4.55;;
25854;SDS011;13680;49.936;11.344;2023-02-28T02:05:14;8.95;;;4.78;;
25854;SDS011;13680;49.936;11.344;2023-02-28T02:07:45;8.80;;;5.15;;
25854;SDS011;13680;49.936;11.344;2023-02-28T02:15:30;8.48;;;4.60;;
25854;SDS011;13680;49.936;11.344;2023-02-28T02:18:01;10.05;;;5.57;;
25854;SDS011;13680;49.936;11.344;2023-02-28T02:26:20;9.43;;;4.82;;
25854;SDS011;13680;49.936;11.344;2023-02-28T02:34:43;10.32;;;5.32;;
25854;SDS011;13680;49.936;11.344;2023-02-28T02:37:14;10.30;;;5.07;;
25854;SDS011;13680;49.936;11.344;2023-02-28T02:39:53;8.77;;;4.53;;
25854;SDS011;13680;49.936;11.344;2023-02-28T02:45:09;10.18;;;4.97;;
25854;SDS011;13680;49.936;11.344;2023-02-28T02:47:40;8.80;;;5.00;;
25854;SDS011;13680;49.936;11.344;2023-02-28T02:50:08;12.35;;;4.93;;
25854;SDS011;13680;49.936;11.344;2023-02-28T02:52:41;8.90;;;4.90;;
25854;SDS011;13680;49.936;11.344;2023-02-28T02:55:10;11.85;;;5.53;;
25854;SDS011;13680;49.936;11.344;2023-02-28T03:00:18;9.43;;;5.10;;
25854;SDS011;13680;49.936;11.344;2023-02-28T03:02:48;11.68;;;5.35;;
25854;SDS011;13680;49.936;11.344;2023-02-28T03:05:17;11.07;;;5.85;;
25854;SDS011;13680;49.936;11.344;2023-02-28T03:07:46;10.20;;;5.68;;
25854;SDS011;13680;49.936;11.344;2023-02-28T03:10:29;12.85;;;6.05;;
25854;SDS011;13680;49.936;11.344;2023-02-28T03:13:12;12.68;;;5.65;;
25854;SDS011;13680;49.936;11.344;2023-02-28T03:21:06;11.75;;;5.68;;
25854;SDS011;13680;49.936;11.344;2023-02-28T03:26:23;9.23;;;5.43;;
25854;SDS011;13680;49.936;11.344;2023-02-28T03:32:05;9.63;;;5.50;;
25854;SDS011;13680;49.936;11.344;2023-02-28T03:34:42;10.90;;;6.05;;
25854;SDS011;13680;49.936;11.344;2023-02-28T03:37:15;10.02;;;6.15;;
25854;SDS011;13680;49.936;11.344;2023-02-28T03:39:45;14.57;;;7.13;;
25854;SDS011;13680;49.936;11.344;2023-02-28T03:42:18;11.65;;;6.43;;
25854;SDS011;13680;49.936;11.344;2023-02-28T03:45:32;14.68;;;6.78;;
25854;SDS011;13680;49.936;11.344;2023-02-28T03:47:39;11.13;;;6.13;;
25854;SDS011;13680;49.936;11.344;2023-02-28T03:52:48;12.20;;;6.65;;
25854;SDS011;13680;49.936;11.344;2023-02-28T03:55:37;12.50;;;6.25;;
25854;SDS011;13680;49.936;11.344;2023-02-28T04:00:52;14.07;;;7.10;;
25854;SDS011;13680;49.936;11.344;2023-02-28T04:03:24;10.35;;;6.60;;
25854;SDS011;13680;49.936;11.344;2023-02-28T04:05:51;10.30;;;6.07;;
25854;SDS011;13680;49.936;11.344;2023-02-28T04:08:18;10.45;;;6.60;;
25854;SDS011;13680;49.936;11.344;2023-02-28T04:10:45;12.85;;;6.82;;
25854;SDS011;13680;49.936;11.344;2023-02-28T04:13:16;11.52;;;6.90;;
25854;SDS011;13680;49.936;11.344;2023-02-28T04:15:41;16.23;;;6.95;;
25854;SDS011;13680;49.936;11.344;2023-02-28T04:18:07;12.57;;;6.45;;
25854;SDS011;13680;49.936;11.344;2023-02-28T04:20:32;10.65;;;6.78;;
25854;SDS011;13680;49.936;11.344;2023-02-28T04:22:58;13.93;;;6.70;;
25854;SDS011;13680;49.936;11.344;2023-02-28T04:25:23;12.18;;;6.43;;
25854;SDS011;13680;49.936;11.344;2023-02-28T04:27:48;12.95;;;6.22;;
25854;SDS011;13680;49.936;11.344;2023-02-28T04:30:14;13.90;;;6.45;;
25854;SDS011;13680;49.936;11.344;2023-02-28T04:32:39;11.57;;;6.25;;
25854;SDS011;13680;49.936;11.344;2023-02-28T04:35:05;12.27;;;6.63;;
25854;SDS011;13680;49.936;11.344;2023-02-28T04:37:31;13.80;;;7.00;;
25854;SDS011;13680;49.936;11.344;2023-02-28T04:39:59;14.80;;;6.70;;
25854;SDS011;13680;49.936;11.344;2023-02-28T04:42:25;9.80;;;6.25;;
25854;SDS011;13680;49.936;11.344;2023-02-28T04:44:50;11.57;;;6.28;;
25854;SDS011;13680;49.936;11.344;2023-02-28T04:47:16;9.88;;;6.40;;
25854;SDS011;13680;49.936;11.344;2023-02-28T04:49:41;14.50;;;7.18;;
25854;SDS011;13680;49.936;11.344;2023-02-28T04:52:06;14.27;;;6.45;;
25854;SDS011;13680;49.936;11.344;2023-02-28T04:54:32;14.20;;;6.43;;
25854;SDS011;13680;49.936;11.344;2023-02-28T04:56:57;13.60;;;7.53;;
25854;SDS011;13680;49.936;11.344;2023-02-28T04:59:23;13.73;;;6.85;;
25854;SDS011;13680;49.936;11.344;2023-02-28T05:01:48;14.30;;;6.63;;
25854;SDS011;13680;49.936;11.344;2023-02-28T05:04:14;19.05;;;7.60;;
25854;SDS011;13680;49.936;11.344;2023-02-28T05:06:39;15.73;;;7.78;;
25854;SDS011;13680;49.936;11.344;2023-02-28T05:09:05;13.45;;;7.07;;
25854;SDS011;13680;49.936;11.344;2023-02-28T05:11:32;13.70;;;7.30;;
25854;SDS011;13680;49.936;11.344;2023-02-28T05:14:03;12.10;;;7.00;;
25854;SDS011;13680;49.936;11.344;2023-02-28T05:16:30;16.20;;;8.43;;
25854;SDS011;13680;49.936;11.344;2023-02-28T05:18:57;16.08;;;7.05;;
25854;SDS011;13680;49.936;11.344;2023-02-28T05:21:24;15.35;;;8.05;;
25854;SDS011;13680;49.936;11.344;2023-02-28T05:24:00;15.85;;;7.22;;
25854;SDS011;13680;49.936;11.344;2023-02-28T05:26:28;16.98;;;7.97;;
25854;SDS011;13680;49.936;11.344;2023-02-28T05:28:53;18.75;;;8.32;;
25854;SDS011;13680;49.936;11.344;2023-02-28T05:31:19;17.65;;;8.23;;
25854;SDS011;13680;49.936;11.344;2023-02-28T05:33:45;17.58;;;8.32;;
25854;SDS011;13680;49.936;11.344;2023-02-28T05:36:11;20.33;;;8.80;;
25854;SDS011;13680;49.936;11.344;2023-02-28T05:38:36;14.80;;;8.15;;
25854;SDS011;13680;49.936;11.344;2023-02-28T05:41:08;19.00;;;8.65;;
25854;SDS011;13680;49.936;11.344;2023-02-28T05:43:35;16.58;;;7.85;;
25854;SDS011;13680;49.936;11.344;2023-02-28T05:46:02;18.48;;;8.73;;
25854;SDS011;13680;49.936;11.344;2023-02-28T05:48:32;19.15;;;8.73;;
25854;SDS011;13680;49.936;11.344;2023-02-28T05:51:01;16.70;;;8.93;;
25854;SDS011;13680;49.936;11.344;2023-02-28T05:53:27;16.50;;;9.02;;
25854;SDS011;13680;49.936;11.344;2023-02-28T05:55:54;15.40;;;8.70;;
25854;SDS011;13680;49.936;11.344;2023-02-28T05:58:19;18.35;;;8.75;;
25854;SDS011;13680;49.936;11.344;2023-02-28T06:00:45;15.90;;;9.18;;
25854;SDS011;13680;49.936;11.344;2023-02-28T06:03:10;16.42;;;8.73;;
25854;SDS011;13680;49.936;11.344;2023-02-28T06:05:36;18.20;;;8.80;;
25854;SDS011;13680;49.936;11.344;2023-02-28T06:08:01;16.73;;;8.68;;
25854;SDS011;13680;49.936;11.344;2023-02-28T06:10:26;16.55;;;9.05;;
25854;SDS011;13680;49.936;11.344;2023-02-28T06:12:52;16.73;;;9.52;;
25854;SDS011;13680;49.936;11.344;2023-02-28T06:15:17;18.27;;;9.23;;
25854;SDS011;13680;49.936;11.344;2023-02-28T06:17:43;20.88;;;9.10;;
25854;SDS011;13680;49.936;11.344;2023-02-28T06:20:09;16.48;;;9.05;;
25854;SDS011;13680;49.936;11.344;2023-02-28T06:22:37;18.60;;;9.57;;
25854;SDS011;13680;49.936;11.344;2023-02-28T06:25:03;16.38;;;8.82;;
25854;SDS011;13680;49.936;11.344;2023-02-28T06:27:30;20.13;;;9.52;;
25854;SDS011;13680;49.936;11.344;2023-02-28T06:29:56;18.48;;;9.30;;
25854;SDS011;13680;49.936;11.344;2023-02-28T06:32:22;22.08;;;8.82;;
25854;SDS011;13680;49.936;11.344;2023-02-28T06:34:47;18.50;;;9.02;;
25854;SDS011;13680;49.936;11.344;2023-02-28T06:37:14;19.60;;;8.85;;
25854;SDS011;13680;49.936;11.344;2023-02-28T06:39:39;19.27;;;9.38;;
25854;SDS011;13680;49.936;11.344;2023-02-28T06:42:04;17.15;;;8.73;;
25854;SDS011;13680;49.936;11.344;2023-02-28T06:44:30;20.02;;;9.63;;
25854;SDS011;13680;49.936;11.344;2023-02-28T06:47:00;15.88;;;8.68;;
25854;SDS011;13680;49.936;11.344;2023-02-28T06:49:30;16.85;;;8.95;;
25854;SDS011;13680;49.936;11.344;2023-02-28T06:51:56;22.05;;;9.93;;
25854;SDS011;13680;49.936;11.344;2023-02-28T06:54:21;18.05;;;9.55;;
25854;SDS011;13680;49.936;11.344;2023-02-28T06:56:47;19.40;;;9.93;;
25854;SDS011;13680;49.936;11.344;2023-02-28T06:59:12;18.52;;;9.25;;
25854;SDS011;13680;49.936;11.344;2023-02-28T07:01:38;16.35;;;9.27;;
25854;SDS011;13680;49.936;11.344;2023-02-28T07:04:04;21.27;;;10.15;;
25854;SDS011;13680;49.936;11.344;2023-02-28T07:06:30;18.83;;;9.98;;
25854;SDS011;13680;49.936;11.344;2023-02-28T07:08:56;19.35;;;9.98;;
25854;SDS011;13680;49.936;11.344;2023-02-28T07:11:22;21.75;;;9.73;;
25854;SDS011;13680;49.936;11.344;2023-02-28T07:13:50;19.85;;;9.27;;
25854;SDS011;13680;49.936;11.344;2023-02-28T07:16:16;20.42;;;9.75;;
25854;SDS011;13680;49.936;11.344;2023-02-28T07:18:42;19.27;;;9.10;;
25854;SDS011;13680;49.936;11.344;2023-02-28T07:21:08;16.65;;;8.63;;
25854;SDS011;13680;49.936;11.344;2023-02-28T07:23:35;19.20;;;10.48;;
25854;SDS011;13680;49.936;11.344;2023-02-28T07:26:01;16.98;;;8.85;;
25854;SDS011;13680;49.936;11.344;2023-02-28T07:28:27;16.80;;;8.30;;
25854;SDS011;13680;49.936;11.344;2023-02-28T07:30:52;23.10;;;10.15;;
25854;SDS011;13680;49.936;11.344;2023-02-28T07:33:17;20.52;;;9.93;;
25854;SDS011;13680;49.936;11.344;2023-02-28T07:35:43;19.27;;;10.38;;
25854;SDS011;13680;49.936;11.344;2023-02-28T07:38:08;17.58;;;9.27;;
25854;SDS011;13680;49.936;11.344;2023-02-28T07:40:35;19.27;;;10.00;;
25854;SDS011;13680;49.936;11.344;2023-02-28T07:43:01;18.27;;;9.27;;
25854;SDS011;13680;49.936;11.344;2023-02-28T07:45:28;15.57;;;8.00;;
25854;SDS011;13680;49.936;11.344;2023-02-28T07:47:55;15.85;;;9.10;;
25854;SDS011;13680;49.936;11.344;2023-02-28T07:50:20;22.38;;;10.07;;
25854;SDS011;13680;49.936;11.344;2023-02-28T07:52:46;19.77;;;9.77;;
25854;SDS011;13680;49.936;11.344;2023-02-28T07:55:11;17.98;;;10.32;;
25854;SDS011;13680;49.936;11.344;2023-02-28T07:57:38;17.23;;;9.50;;
25854;SDS011;13680;49.936;11.344;2023-02-28T08:00:05;20.27;;;10.55;;
25854;SDS011;13680;49.936;11.344;2023-02-28T08:02:37;18.33;;;9.82;;
25854;SDS011;13680;49.936;11.344;2023-02-28T08:05:03;18.05;;;9.73;;
25854;SDS011;13680;49.936;11.344;2023-02-28T08:07:29;21.42;;;9.50;;
25854;SDS011;13680;49.936;11.344;2023-02-28T08:09:54;18.70;;;10.30;;
25854;SDS011;13680;49.936;11.344;2023-02-28T08:12:20;19.05;;;9.93;;
25854;SDS011;13680;49.936;11.344;2023-02-28T08:14:45;19.48;;;9.70;;
25854;SDS011;13680;49.936;11.344;2023-02-28T08:17:10;22.88;;;10.88;;
25854;SDS011;13680;49.936;11.344;2023-02-28T08:19:36;18.30;;;9.57;;
25854;SDS011;13680;49.936;11.344;2023-02-28T08:22:01;18.98;;;10.48;;
25854;SDS011;13680;49.936;11.344;2023-02-28T08:24:27;17.38;;;8.90;;
25854;SDS011;13680;49.936;11.344;2023-02-28T08:26:53;26.65;;;14.05;;
25854;SDS011;13680;49.936;11.344;2023-02-28T08:29:18;21.42;;;10.30;;
25854;SDS011;13680;49.936;11.344;2023-02-28T08:31:43;19.67;;;8.77;;
25854;SDS011;13680;49.936;11.344;2023-02-28T08:34:09;17.38;;;9.23;;
25854;SDS011;13680;49.936;11.344;2023-02-28T08:36:38;17.15;;;9.10;;
25854;SDS011;13680;49.936;11.344;2023-02-28T08:39:04;17.63;;;8.80;;
25854;SDS011;13680;49.936;11.344;2023-02-28T08:41:30;19.48;;;8.73;;
25854;SDS011;13680;49.936;11.344;2023-02-28T08:43:55;19.05;;;9.27;;
25854;SDS011;13680;49.936;11.344;2023-02-28T08:46:21;16.10;;;9.27;;
25854;SDS011;13680;49.936;11.344;2023-02-28T08:48:46;19.45;;;10.23;;
25854;SDS011;13680;49.936;11.344;2023-02-28T08:51:13;18.17;;;10.23;;
25854;SDS011;13680;49.936;11.344;2023-02-28T08:53:46;18.42;;;9.48;;
25854;SDS011;13680;49.936;11.344;2023-02-28T08:56:14;19.85;;;9.63;;
25854;SDS011;13680;49.936;11.344;2023-02-28T08:58:41;17.63;;;9.45;;
25854;SDS011;13680;49.936;11.344;2023-02-28T09:01:12;15.13;;;9.13;;
25854;SDS011;13680;49.936;11.344;2023-02-28T09:03:39;18.13;;;9.27;;
25854;SDS011;13680;49.936;11.344;2023-02-28T09:06:06;18.77;;;8.95;;
25854;SDS011;13680;49.936;11.344;2023-02-28T09:08:33;19.15;;;9.07;;
25854;SDS011;13680;49.936;11.344;2023-02-28T09:10:59;20.55;;;9.32;;
25854;SDS011;13680;49.936;11.344;2023-02-28T09:13:25;14.55;;;7.85;;
25854;SDS011;13680;49.936;11.344;2023-02-28T09:15:51;18.50;;;8.75;;
25854;SDS011;13680;49.936;11.344;2023-02-28T09:18:17;14.70;;;8.18;;
25854;SDS011;13680;49.936;11.344;2023-02-28T09:20:42;17.00;;;7.82;;
25854;SDS011;13680;49.936;11.344;2023-02-28T09:23:08;13.63;;;7.10;;
25854;SDS011;13680;49.936;11.344;2023-02-28T09:25:35;14.77;;;7.20;;
25854;SDS011;13680;49.936;11.344;2023-02-28T09:28:01;16.20;;;7.60;;
25854;SDS011;13680;49.936;11.344;2023-02-28T09:30:27;16.70;;;8.00;;
25854;SDS011;13680;49.936;11.344;2023-02-28T09:32:54;13.60;;;7.53;;
25854;SDS011;13680;49.936;11.344;2023-02-28T09:35:20;16.08;;;6.97;;
25854;SDS011;13680;49.936;11.344;2023-02-28T09:37:50;14.57;;;7.43;;
25854;SDS011;13680;49.936;11.344;2023-02-28T09:40:19;13.40;;;7.20;;
25854;SDS011;13680;49.936;11.344;2023-02-28T09:42:48;19.60;;;7.07;;
25854;SDS011;13680;49.936;11.344;2023-02-28T09:45:23;14.50;;;6.63;;
25854;SDS011;13680;49.936;11.344;2023-02-28T09:47:52;11.48;;;7.07;;
25854;SDS011;13680;49.936;11.344;2023-02-28T09:50:31;12.68;;;7.10;;
25854;SDS011;13680;49.936;11.344;2023-02-28T09:53:05;16.05;;;7.75;;
25854;SDS011;13680;49.936;11.344;2023-02-28T09:58:14;16.25;;;6.95;;
25854;SDS011;13680;49.936;11.344;2023-02-28T10:00:45;12.35;;;6.45;;
25854;SDS011;13680;49.936;11.344;2023-02-28T10:03:28;15.93;;;7.80;;
25854;SDS011;13680;49.936;11.344;2023-02-28T10:08:40;15.52;;;7.18;;
25854;SDS011;13680;49.936;11.344;2023-02-28T10:11:11;12.30;;;7.80;;
25854;SDS011;13680;49.936;11.344;2023-02-28T10:13:53;15.40;;;8.63;;
25854;SDS011;13680;49.936;11.344;2023-02-28T10:27:06;16.45;;;9.20;;
25854;SDS011;13680;49.936;11.344;2023-02-28T10:29:40;13.95;;;7.97;;
25854;SDS011;13680;49.936;11.344;2023-02-28T10:32:16;21.58;;;11.52;;
25854;SDS011;13680;49.936;11.344;2023-02-28T10:34:43;14.45;;;8.10;;
25854;SDS011;13680;49.936;11.344;2023-02-28T10:37:09;11.32;;;7.07;;
25854;SDS011;13680;49.936;11.344;2023-02-28T10:39:41;21.40;;;9.30;;
25854;SDS011;13680;49.936;11.344;2023-02-28T10:45:10;12.88;;;7.70;;
25854;SDS011;13680;49.936;11.344;2023-02-28T10:47:52;12.40;;;7.03;;
25854;SDS011;13680;49.936;11.344;2023-02-28T10:50:34;11.70;;;7.18;;
25854;SDS011;13680;49.936;11.344;2023-02-28T10:55:39;13.35;;;7.43;;
25854;SDS011;13680;49.936;11.344;2023-02-28T10:58:18;13.05;;;7.90;;
25854;SDS011;13680;49.936;11.344;2023-02-28T11:00:46;15.50;;;7.57;;
25854;SDS011;13680;49.936;11.344;2023-02-28T11:03:25;11.93;;;7.47;;
25854;SDS011;13680;49.936;11.344;2023-02-28T11:05:55;13.45;;;6.97;;
25854;SDS011;13680;49.936;11.344;2023-02-28T11:08:20;11.77;;;7.47;;
25854;SDS011;13680;49.936;11.344;2023-02-28T11:10:54;11.60;;;6.63;;
25854;SDS011;13680;49.936;11.344;2023-02-28T11:15:55;12.48;;;6.65;;
25854;SDS011;13680;49.936;11.344;2023-02-28T11:18:24;13.15;;;6.80;;
25854;SDS011;13680;49.936;11.344;2023-02-28T11:20:56;13.32;;;6.88;;
25854;SDS011;13680;49.936;11.344;2023-02-28T11:23:28;16.80;;;8.35;;
25854;SDS011;13680;49.936;11.344;2023-02-28T11:25:56;10.15;;;6.40;;
25854;SDS011;13680;49.936;11.344;2023-02-28T11:33:44;14.88;;;7.20;;
25854;SDS011;13680;49.936;11.344;2023-02-28T11:38:42;11.70;;;7.03;;
25854;SDS011;13680;49.936;11.344;2023-02-28T11:41:15;12.60;;;7.63;;
25854;SDS011;13680;49.936;11.344;2023-02-28T11:44:04;13.55;;;6.38;;
25854;SDS011;13680;49.936;11.344;2023-02-28T11:46:44;11.05;;;6.35;;
25854;SDS011;13680;49.936;11.344;2023-02-28T12:00:32;9.73;;;6.28;;
25854;SDS011;13680;49.936;11.344;2023-02-28T12:22:31;13.07;;;6.22;;
25854;SDS011;13680;49.936;11.344;2023-02-28T12:25:10;11.35;;;6.88;;
25854;SDS011;13680;49.936;11.344;2023-02-28T12:27:46;14.95;;;7.30;;
25854;SDS011;13680;49.936;11.344;2023-02-28T12:30:21;12.82;;;7.30;;
25854;SDS011;13680;49.936;11.344;2023-02-28T12:33:04;13.90;;;8.07;;
25854;SDS011;13680;49.936;11.344;2023-02-28T12:35:49;13.27;;;7.82;;
25854;SDS011;13680;49.936;11.344;2023-02-28T12:38:33;10.52;;;7.18;;
25854;SDS011;13680;49.936;11.344;2023-02-28T12:41:03;43.58;;;10.90;;
25854;SDS011;13680;49.936;11.344;2023-02-28T12:43:37;17.98;;;11.80;;
25854;SDS011;13680;49.936;11.344;2023-02-28T12:46:12;15.85;;;8.20;;
25854;SDS011;13680;49.936;11.344;2023-02-28T12:48:59;13.70;;;6.88;;
25854;SDS011;13680;49.936;11.344;2023-02-28T12:51:29;11.15;;;8.30;;
25854;SDS011;13680;49.936;11.344;2023-02-28T12:59:14;11.85;;;6.95;;
25854;SDS011;13680;49.936;11.344;2023-02-28T13:07:20;11.88;;;6.57;;
25854;SDS011;13680;49.936;11.344;2023-02-28T13:09:59;10.50;;;6.88;;
25854;SDS011;13680;49.936;11.344;2023-02-28T13:12:27;10.52;;;6.60;;
25854;SDS011;13680;49.936;11.344;2023-02-28T13:17:47;15.13;;;7.40;;
25854;SDS011;13680;49.936;11.344;2023-02-28T13:20:15;10.25;;;6.47;;
25854;SDS011;13680;49.936;11.344;2023-02-28T13:22:44;9.93;;;6.90;;
25854;SDS011;13680;49.936;11.344;2023-02-28T13:27:58;9.90;;;6.68;;
25854;SDS011;13680;49.936;11.344;2023-02-28T13:36:25;9.98;;;6.30;;
25854;SDS011;13680;49.936;11.344;2023-02-28T13:39:44;10.27;;;5.90;;
25854;SDS011;13680;49.936;11.344;2023-02-28T13:47:38;14.98;;;7.30;;
25854;SDS011;13680;49.936;11.344;2023-02-28T14:07:26;11.10;;;6.30;;
25854;SDS011;13680;49.936;11.344;2023-02-28T14:09:57;10.63;;;6.47;;
25854;SDS011;13680;49.936;11.344;2023-02-28T14:17:55;10.70;;;6.18;;
25854;SDS011;13680;49.936;11.344;2023-02-28T14:20:25;11.13;;;6.15;;
25854;SDS011;13680;49.936;11.344;2023-02-28T14:25:33;11.43;;;6.47;;
25854;SDS011;13680;49.936;11.344;2023-02-28T14:31:15;10.07;;;5.72;;
25854;SDS011;13680;49.936;11.344;2023-02-28T14:36:25;10.07;;;6.40;;
25854;SDS011;13680;49.936;11.344;2023-02-28T14:38:56;13.13;;;7.07;;
25854;SDS011;13680;49.936;11.344;2023-02-28T14:41:32;14.45;;;6.95;;
25854;SDS011;13680;49.936;11.344;2023-02-28T14:44:13;10.35;;;6.60;;
25854;SDS011;13680;49.936;11.344;2023-02-28T14:46:44;15.77;;;8.23;;
25854;SDS011;13680;49.936;11.344;2023-02-28T14:49:21;12.43;;;6.80;;
25854;SDS011;13680;49.936;11.344;2023-02-28T14:52:14;21.73;;;7.63;;
25854;SDS011;13680;49.936;11.344;2023-02-28T14:54:44;12.73;;;6.75;;
25854;SDS011;13680;49.936;11.344;2023-02-28T15:02:25;9.55;;;6.13;;
25854;SDS011;13680;49.936;11.344;2023-02-28T15:04:58;11.93;;;6.90;;
25854;SDS011;13680;49.936;11.344;2023-02-28T15:07:26;11.88;;;7.47;;
25854;SDS011;13680;49.936;11.344;2023-02-28T15:10:07;10.43;;;6.80;;
25854;SDS011;13680;49.936;11.344;2023-02-28T15:12:35;11.73;;;6.60;;
25854;SDS011;13680;49.936;11.344;2023-02-28T15:15:02;14.02;;;7.43;;
25854;SDS011;13680;49.936;11.344;2023-02-28T15:17:27;13.73;;;6.88;;
25854;SDS011;13680;49.936;11.344;2023-02-28T15:19:53;16.38;;;7.65;;
25854;SDS011;13680;49.936;11.344;2023-02-28T15:22:23;12.38;;;7.22;;
25854;SDS011;13680;49.936;11.344;2023-02-28T15:24:55;12.45;;;6.85;;
25854;SDS011;13680;49.936;11.344;2023-02-28T15:27:21;15.52;;;7.30;;
25854;SDS011;13680;49.936;11.344;2023-02-28T15:29:54;15.35;;;7.45;;
25854;SDS011;13680;49.936;11.344;2023-02-28T15:32:24;11.48;;;6.70;;
25854;SDS011;13680;49.936;11.344;2023-02-28T15:34:53;14.00;;;8.18;;
25854;SDS011;13680;49.936;11.344;2023-02-28T15:39:56;14.35;;;7.93;;
25854;SDS011;13680;49.936;11.344;2023-02-28T15:42:27;13.75;;;8.10;;
25854;SDS011;13680;49.936;11.344;2023-02-28T15:44:53;12.80;;;7.28;;
25854;SDS011;13680;49.936;11.344;2023-02-28T15:47:19;15.63;;;7.38;;
25854;SDS011;13680;49.936;11.344;2023-02-28T15:49:50;12.75;;;7.35;;
25854;SDS011;13680;49.936;11.344;2023-02-28T15:52:19;13.48;;;7.72;;
25854;SDS011;13680;49.936;11.344;2023-02-28T15:54:53;14.73;;;7.82;;
25854;SDS011;13680;49.936;11.344;2023-02-28T15:57:23;16.02;;;7.70;;
25854;SDS011;13680;49.936;11.344;2023-02-28T15:59:58;12.77;;;7.30;;
25854;SDS011;13680;49.936;11.344;2023-02-28T16:02:38;16.23;;;8.43;;
25854;SDS011;13680;49.936;11.344;2023-02-28T16:07:33;17.13;;;8.07;;
25854;SDS011;13680;49.936;11.344;2023-02-28T16:09:59;13.88;;;7.95;;
25854;SDS011;13680;49.936;11.344;2023-02-28T16:12:26;15.00;;;9.32;;
25854;SDS011;13680;49.936;11.344;2023-02-28T16:14:57;13.32;;;7.35;;
25854;SDS011;13680;49.936;11.344;2023-02-28T16:17:28;17.40;;;8.50;;
25854;SDS011;13680;49.936;11.344;2023-02-28T16:19:56;14.70;;;7.65;;
25854;SDS011;13680;49.936;11.344;2023-02-28T16:22:21;15.35;;;8.43;;
25854;SDS011;13680;49.936;11.344;2023-02-28T16:24:47;16.52;;;7.72;;
25854;SDS011;13680;49.936;11.344;2023-02-28T16:29:56;14.05;;;7.32;;
25854;SDS011;13680;49.936;11.344;2023-02-28T16:32:21;15.48;;;8.60;;
25854;SDS011;13680;49.936;11.344;2023-02-28T16:34:46;14.98;;;7.88;;
25854;SDS011;13680;49.936;11.344;2023-02-28T16:37:16;14.52;;;8.50;;
25854;SDS011;13680;49.936;11.344;2023-02-28T16:39:43;20.65;;;9.75;;
25854;SDS011;13680;49.936;11.344;2023-02-28T16:42:10;16.38;;;9.15;;
25854;SDS011;13680;49.936;11.344;2023-02-28T16:44:41;15.80;;;9.43;;
25854;SDS011;13680;49.936;11.344;2023-02-28T16:47:08;15.43;;;8.93;;
25854;SDS011;13680;49.936;11.344;2023-02-28T16:49:36;18.65;;;9.35;;
25854;SDS011;13680;49.936;11.344;2023-02-28T16:52:02;15.30;;;9.07;;
25854;SDS011;13680;49.936;11.344;2023-02-28T16:54:27;15.50;;;8.55;;
25854;SDS011;13680;49.936;11.344;2023-02-28T16:56:53;14.93;;;8.48;;
25854;SDS011;13680;49.936;11.344;2023-02-28T16:59:19;18.45;;;9.95;;
25854;SDS011;13680;49.936;11.344;2023-02-28T17:01:49;18.85;;;8.82;;
25854;SDS011;13680;49.936;11.344;2023-02-28T17:04:14;19.42;;;9.07;;
25854;SDS011;13680;49.936;11.344;2023-02-28T17:06:40;18.17;;;9.10;;
25854;SDS011;13680;49.936;11.344;2023-02-28T17:09:08;14.30;;;8.65;;
25854;SDS011;13680;49.936;11.344;2023-02-28T17:11:40;19.55;;;9.50;;
25854;SDS011;13680;49.936;11.344;2023-02-28T17:14:05;15.80;;;8.68;;
25854;SDS011;13680;49.936;11.344;2023-02-28T17:16:32;20.40;;;9.75;;
25854;SDS011;13680;49.936;11.344;2023-02-28T17:19:01;19.40;;;9.23;;
25854;SDS011;13680;49.936;11.344;2023-02-28T17:21:29;14.32;;;9.02;;
25854;SDS011;13680;49.936;11.344;2023-02-28T17:23:54;22.77;;;9.70;;
25854;SDS011;13680;49.936;11.344;2023-02-28T17:26:21;16.77;;;9.43;;
25854;SDS011;13680;49.936;11.344;2023-02-28T17:28:49;15.98;;;9.10;;